Time;durP1;ratioP1;P1;durP2;ratioP2;P2;SDS_P1;SDS_P2;PMS_P1;PMS_P2;Temp;Humidity;BMP_temperature;BMP_pressure;BME280_temperature;BME280_humidity;BME280_pressure;Samples;Min_cycle;Max_cycle;Signal;HPM_P1;HPM_P2
2021/05/24 00:00:21;;;;;;;2.30;0.60;;;14.00;66.70;;;;;;5089403;28;20044;-71
2021/05/24 00:02:49;;;;;;;1.55;0.60;;;14.00;66.60;;;;;;5095089;28;20063;-71
2021/05/24 00:05:19;;;;;;;1.83;0.77;;;13.90;66.60;;;;;;5095256;28;20036;-71
2021/05/24 00:07:47;;;;;;;2.03;0.55;;;13.90;66.60;;;;;;5113111;28;20039;-71
2021/05/24 00:10:17;;;;;;;1.08;0.40;;;14.00;66.60;;;;;;5095659;28;20506;-71
2021/05/24 00:12:49;;;;;;;1.10;0.30;;;13.90;66.50;;;;;;5114624;28;20039;-71
2021/05/24 00:15:19;;;;;;;1.10;0.30;;;14.00;66.50;;;;;;5110711;28;20533;-71
2021/05/24 00:17:48;;;;;;;1.25;0.32;;;13.90;66.40;;;;;;5093161;28;20064;-71
2021/05/24 00:20:18;;;;;;;0.70;0.30;;;13.90;66.40;;;;;;5109584;28;20066;-71
2021/05/24 00:22:45;;;;;;;2.00;0.30;;;13.90;66.40;;;;;;5108268;28;20116;-71
2021/05/24 00:25:13;;;;;;;0.70;0.20;;;13.90;66.30;;;;;;5094436;28;20407;-72
2021/05/24 00:27:41;;;;;;;1.40;0.50;;;13.90;66.30;;;;;;5109213;28;20071;-71
2021/05/24 00:30:09;;;;;;;1.50;0.30;;;13.90;67.00;;;;;;5093467;28;20071;-71
2021/05/24 00:32:37;;;;;;;0.50;0.20;;;13.90;66.40;;;;;;5108293;28;20105;-71
2021/05/24 00:35:04;;;;;;;1.73;0.20;;;13.90;66.50;;;;;;5089556;28;20042;-71
2021/05/24 00:37:32;;;;;;;0.52;0.20;;;13.90;66.50;;;;;;5111727;28;20483;-71
2021/05/24 00:39:59;;;;;;;0.95;0.20;;;13.90;66.50;;;;;;5112912;28;20076;-71
2021/05/24 00:42:27;;;;;;;1.83;0.20;;;13.90;66.50;;;;;;5113196;28;20040;-71
2021/05/24 00:44:54;;;;;;;0.30;0.10;;;13.90;66.50;;;;;;5110663;28;20067;-71
2021/05/24 00:47:20;;;;;;;0.55;0.10;;;13.90;66.40;;;;;;5092058;28;20044;-71
2021/05/24 00:49:47;;;;;;;0.95;0.10;;;13.90;66.50;;;;;;5093309;28;20043;-71
2021/05/24 00:52:14;;;;;;;5.05;0.80;;;13.90;66.50;;;;;;5061377;28;20104;-71
2021/05/24 00:54:42;;;;;;;1.27;0.38;;;13.90;66.50;;;;;;5113466;28;20115;-71
2021/05/24 00:57:09;;;;;;;0.32;0.13;;;13.90;66.40;;;;;;5109532;28;20067;-71
2021/05/24 00:59:36;;;;;;;0.80;0.00;;;13.90;66.40;;;;;;5113502;28;20043;-71
2021/05/24 01:02:04;;;;;;;0.70;0.10;;;13.90;66.50;;;;;;5108563;28;20055;-71
2021/05/24 01:04:31;;;;;;;0.70;0.10;;;13.90;66.50;;;;;;5094868;28;20040;-71
2021/05/24 01:06:58;;;;;;;1.00;0.20;;;13.90;66.60;;;;;;5095453;28;20120;-71
2021/05/24 01:09:25;;;;;;;0.47;0.10;;;13.90;66.70;;;;;;5113107;28;20055;-71
2021/05/24 01:11:52;;;;;;;0.03;0.00;;;13.90;66.70;;;;;;5095297;28;20067;-71
2021/05/24 01:14:19;;;;;;;0.40;0.20;;;13.90;66.80;;;;;;5074565;28;20499;-71
2021/05/24 01:16:55;;;;;;;0.28;0.10;;;13.90;66.80;;;;;;5103986;28;20063;-71
2021/05/24 01:19:23;;;;;;;0.13;0.10;;;13.90;66.70;;;;;;5089574;28;20047;-71
2021/05/24 01:21:51;;;;;;;0.45;0.20;;;13.90;66.80;;;;;;5090314;28;20032;-71
2021/05/24 01:24:22;;;;;;;0.22;0.08;;;13.90;66.90;;;;;;5111625;28;20487;-71
2021/05/24 01:26:49;;;;;;;1.77;0.20;;;13.90;66.90;;;;;;5091527;28;20047;-71
2021/05/24 01:29:21;;;;;;;1.30;0.10;;;13.90;66.90;;;;;;5092033;28;20050;-71
2021/05/24 01:31:49;;;;;;;1.30;0.10;;;13.90;67.00;;;;;;5107848;28;20048;-71
2021/05/24 01:34:17;;;;;;;0.95;0.20;;;13.90;67.10;;;;;;5108597;28;20039;-71
2021/05/24 01:36:44;;;;;;;0.35;0.00;;;13.90;67.10;;;;;;5099380;28;20110;-71
2021/05/24 01:39:11;;;;;;;0.30;0.10;;;13.90;67.70;;;;;;5081221;28;20479;-71
2021/05/24 01:41:39;;;;;;;1.17;0.10;;;13.80;67.10;;;;;;5083800;28;20390;-71
2021/05/24 01:44:06;;;;;;;0.50;0.10;;;13.80;67.30;;;;;;5081431;28;20126;-71
2021/05/24 01:46:33;;;;;;;0.50;0.20;;;13.80;67.30;;;;;;5099996;28;20470;-71
2021/05/24 01:49:00;;;;;;;0.70;0.13;;;13.80;67.40;;;;;;5084469;28;20151;-71
2021/05/24 01:51:27;;;;;;;0.30;0.10;;;13.80;67.40;;;;;;5091783;28;20047;-71
2021/05/24 01:53:54;;;;;;;0.43;0.10;;;13.80;67.50;;;;;;5108036;28;20537;-71
2021/05/24 01:56:21;;;;;;;0.35;0.17;;;13.80;68.20;;;;;;5092862;28;20032;-71
2021/05/24 01:58:48;;;;;;;1.20;0.17;;;13.80;67.60;;;;;;5074504;28;20036;-71
2021/05/24 02:01:15;;;;;;;0.63;0.10;;;13.80;67.70;;;;;;5081096;28;20067;-72
2021/05/24 02:03:44;;;;;;;0.57;0.30;;;13.80;67.80;;;;;;5078856;28;20142;-71
2021/05/24 02:06:11;;;;;;;0.10;0.00;;;13.70;67.80;;;;;;5099107;28;20042;-71
2021/05/24 02:08:39;;;;;;;0.45;0.10;;;13.70;67.80;;;;;;5110494;28;20084;-71
2021/05/24 02:11:06;;;;;;;0.98;0.10;;;13.70;67.90;;;;;;5093398;28;20036;-71
2021/05/24 02:13:33;;;;;;;0.77;0.10;;;13.70;68.00;;;;;;5090218;28;20041;-71
2021/05/24 02:16:00;;;;;;;0.75;0.35;;;13.70;68.10;;;;;;5089047;28;20044;-72
2021/05/24 02:18:27;;;;;;;0.30;0.10;;;13.70;68.20;;;;;;5076564;28;20119;-72
2021/05/24 02:20:54;;;;;;;0.40;0.10;;;13.70;68.20;;;;;;5091609;28;20531;-71
2021/05/24 02:23:21;;;;;;;0.15;0.00;;;13.70;68.30;;;;;;5092827;28;20036;-71
2021/05/24 02:25:48;;;;;;;0.82;0.10;;;13.70;68.30;;;;;;5110512;28;20417;-71
2021/05/24 02:28:15;;;;;;;0.35;0.10;;;13.70;68.40;;;;;;5093035;28;20035;-71
2021/05/24 02:30:42;;;;;;;0.85;0.10;;;13.70;68.40;;;;;;5092975;28;20040;-71
2021/05/24 02:33:09;;;;;;;1.17;0.10;;;13.60;68.50;;;;;;5092725;28;20399;-71
2021/05/24 02:35:36;;;;;;;1.88;0.10;;;13.60;68.50;;;;;;5107225;28;20544;-71
2021/05/24 02:38:04;;;;;;;0.32;0.10;;;13.60;68.50;;;;;;5093652;28;20040;-71
2021/05/24 02:40:32;;;;;;;0.25;0.10;;;13.60;68.60;;;;;;5110586;28;20035;-71
2021/05/24 02:42:59;;;;;;;0.55;0.10;;;13.60;68.70;;;;;;5092902;28;20035;-71
2021/05/24 02:45:26;;;;;;;0.15;0.00;;;13.60;68.80;;;;;;5112125;28;20085;-71
2021/05/24 02:47:53;;;;;;;0.10;0.00;;;13.60;68.90;;;;;;5111037;28;20046;-71
2021/05/24 02:50:23;;;;;;;0.95;0.10;;;13.50;68.90;;;;;;5107319;28;20032;-71
2021/05/24 02:52:50;;;;;;;0.20;0.10;;;13.50;68.90;;;;;;5100269;28;20043;-71
2021/05/24 02:55:19;;;;;;;2.90;0.10;;;13.50;69.00;;;;;;5076159;28;20477;-71
2021/05/24 02:57:46;;;;;;;0.10;0.10;;;13.50;69.00;;;;;;5072131;28;20071;-71
2021/05/24 03:00:13;;;;;;;0.30;0.10;;;13.50;69.00;;;;;;5111441;28;20035;-71
2021/05/24 03:02:47;;;;;;;0.63;0.10;;;13.50;69.10;;;;;;5093859;28;20036;-72
2021/05/24 03:05:17;;;;;;;0.75;0.10;;;13.50;69.20;;;;;;5109183;28;20028;-71
2021/05/24 03:07:45;;;;;;;0.38;0.10;;;13.40;69.10;;;;;;5111743;28;20051;-71
2021/05/24 03:10:14;;;;;;;0.65;0.10;;;13.40;69.30;;;;;;5111056;28;20859;-72
2021/05/24 03:12:41;;;;;;;0.52;0.10;;;13.40;69.30;;;;;;5088142;28;20044;-71
2021/05/24 03:15:10;;;;;;;0.80;0.10;;;13.40;70.00;;;;;;5093393;28;20048;-72
2021/05/24 03:17:38;;;;;;;1.20;0.10;;;13.40;69.50;;;;;;5091480;28;20039;-71
2021/05/24 03:20:08;;;;;;;0.10;0.00;;;13.40;69.60;;;;;;5108413;28;20047;-71
2021/05/24 03:22:36;;;;;;;0.15;0.03;;;13.40;69.60;;;;;;5094536;28;20529;-71
2021/05/24 03:25:05;;;;;;;1.40;0.10;;;13.40;69.70;;;;;;5092575;28;20452;-71
2021/05/24 03:27:32;;;;;;;0.20;0.10;;;13.40;69.70;;;;;;5113562;28;21854;-72
2021/05/24 03:30:00;;;;;;;0.13;0.00;;;13.40;69.90;;;;;;5113048;28;20036;-71
2021/05/24 03:32:27;;;;;;;0.35;0.10;;;13.40;70.50;;;;;;5115395;28;20383;-71
2021/05/24 03:34:54;;;;;;;0.30;0.13;;;13.40;70.50;;;;;;5114868;27;20055;-71
2021/05/24 03:37:21;;;;;;;0.65;0.10;;;13.40;70.50;;;;;;5096329;28;20116;-71
2021/05/24 03:39:48;;;;;;;0.38;0.10;;;13.40;69.90;;;;;;5095269;28;20069;-71
2021/05/24 03:42:15;;;;;;;0.45;0.00;;;13.40;70.00;;;;;;5080219;28;20034;-71
2021/05/24 03:44:45;;;;;;;0.25;0.10;;;13.40;70.00;;;;;;5112882;28;20040;-71
2021/05/24 03:47:13;;;;;;;1.02;0.05;;;13.40;70.10;;;;;;5113620;28;20036;-71
2021/05/24 03:49:47;;;;;;;0.30;0.10;;;13.40;70.10;;;;;;5112118;28;20039;-71
2021/05/24 03:52:15;;;;;;;0.45;0.10;;;13.40;70.20;;;;;;5110789;28;20048;-71
2021/05/24 03:54:42;;;;;;;1.98;0.10;;;13.40;70.20;;;;;;5096315;28;20043;-71
2021/05/24 03:57:11;;;;;;;0.00;0.00;;;13.40;70.30;;;;;;5089674;28;20040;-71
2021/05/24 03:59:39;;;;;;;0.40;0.20;;;13.40;70.30;;;;;;5094477;28;20033;-71
2021/05/24 04:02:07;;;;;;;0.40;0.10;;;13.40;70.40;;;;;;5096136;28;20031;-71
2021/05/24 04:04:34;;;;;;;0.60;0.13;;;13.30;70.40;;;;;;5113123;28;20039;-71
2021/05/24 04:07:03;;;;;;;1.45;0.57;;;13.40;70.50;;;;;;5095552;28;20089;-71
2021/05/24 04:09:31;;;;;;;1.48;0.60;;;13.30;70.50;;;;;;5095171;28;20172;-71
2021/05/24 04:11:58;;;;;;;1.30;0.10;;;13.30;71.20;;;;;;5112455;28;20096;-71
2021/05/24 04:14:26;;;;;;;1.55;0.20;;;13.30;70.60;;;;;;5108419;28;20048;-71
2021/05/24 04:16:53;;;;;;;2.50;0.13;;;13.30;70.70;;;;;;5095844;28;20077;-71
2021/05/24 04:19:20;;;;;;;0.22;0.10;;;13.20;70.70;;;;;;5112895;28;20084;-71
2021/05/24 04:21:47;;;;;;;1.17;0.10;;;13.20;70.70;;;;;;5104051;28;20482;-71
2021/05/24 04:24:15;;;;;;;1.67;0.10;;;13.20;70.80;;;;;;5113537;28;20120;-71
2021/05/24 04:26:43;;;;;;;0.40;0.10;;;13.20;70.80;;;;;;5095901;28;20047;-71
2021/05/24 04:29:10;;;;;;;1.88;0.10;;;13.20;70.80;;;;;;5084812;28;20407;-71
2021/05/24 04:31:37;;;;;;;0.20;0.10;;;13.20;70.80;;;;;;5105802;28;20090;-71
2021/05/24 04:34:04;;;;;;;1.30;0.10;;;13.20;71.00;;;;;;5078629;28;20040;-70
2021/05/24 04:36:31;;;;;;;0.22;0.10;;;13.20;71.00;;;;;;5095673;28;20138;-71
2021/05/24 04:38:58;;;;;;;0.40;0.10;;;13.20;71.10;;;;;;5078409;28;20043;-71
2021/05/24 04:41:26;;;;;;;0.30;0.00;;;13.20;71.10;;;;;;5112247;28;20528;-71
2021/05/24 04:43:57;;;;;;;1.05;0.20;;;13.20;71.20;;;;;;5094882;28;20040;-71
2021/05/24 04:46:24;;;;;;;0.60;0.30;;;13.20;71.30;;;;;;5103776;28;20051;-71
2021/05/24 04:48:51;;;;;;;0.47;0.03;;;13.20;71.20;;;;;;5093009;28;20510;-71
2021/05/24 04:51:18;;;;;;;0.52;0.03;;;13.20;71.30;;;;;;5103420;28;20039;-71
2021/05/24 04:53:45;;;;;;;0.35;0.15;;;13.20;71.20;;;;;;5106302;28;20050;-71
2021/05/24 04:56:12;;;;;;;0.43;0.10;;;13.20;71.30;;;;;;5094614;28;20036;-71
2021/05/24 04:58:39;;;;;;;0.10;0.00;;;13.20;71.30;;;;;;5102504;28;20039;-71
2021/05/24 05:01:06;;;;;;;0.50;0.10;;;13.30;71.40;;;;;;5101281;28;20028;-71
2021/05/24 05:03:34;;;;;;;0.88;0.10;;;13.30;71.50;;;;;;5089669;28;20054;-71
2021/05/24 05:06:02;;;;;;;0.80;0.03;;;13.30;71.50;;;;;;5072862;28;20044;-71
2021/05/24 05:08:29;;;;;;;0.63;0.10;;;13.30;71.50;;;;;;5112838;28;20080;-71
2021/05/24 05:10:56;;;;;;;0.90;0.10;;;13.30;71.50;;;;;;5094071;28;20051;-71
2021/05/24 05:13:23;;;;;;;1.48;0.10;;;13.30;71.50;;;;;;5094839;28;20489;-71
2021/05/24 05:15:50;;;;;;;0.63;0.20;;;13.40;71.60;;;;;;5093180;28;20047;-71
2021/05/24 05:18:17;;;;;;;0.60;0.10;;;13.40;71.60;;;;;;5091215;28;20051;-71
2021/05/24 05:20:44;;;;;;;0.00;0.00;;;13.40;71.60;;;;;;5090700;28;20127;-71
2021/05/24 05:23:11;;;;;;;0.35;0.10;;;13.40;71.60;;;;;;5094239;28;20390;-71
2021/05/24 05:25:38;;;;;;;0.40;0.10;;;13.50;71.60;;;;;;5105508;28;20043;-71
2021/05/24 05:28:07;;;;;;;0.32;0.10;;;13.50;71.60;;;;;;5095085;28;20154;-71
2021/05/24 05:30:34;;;;;;;0.00;0.00;;;13.50;71.50;;;;;;5094259;28;20036;-71
2021/05/24 05:33:01;;;;;;;0.20;0.10;;;13.60;71.60;;;;;;5112253;28;20051;-71
2021/05/24 05:35:32;;;;;;;1.05;0.10;;;13.60;71.50;;;;;;5094849;28;20074;-71
2021/05/24 05:37:59;;;;;;;1.55;0.15;;;13.60;71.50;;;;;;5104660;28;20040;-71
2021/05/24 05:40:27;;;;;;;0.80;0.10;;;13.70;71.50;;;;;;5094143;28;20551;-71
2021/05/24 05:42:54;;;;;;;0.60;0.10;;;13.70;71.50;;;;;;5094435;28;20125;-71
2021/05/24 05:45:21;;;;;;;0.40;0.10;;;13.80;71.50;;;;;;5112555;28;20043;-71
2021/05/24 05:47:48;;;;;;;0.82;0.10;;;13.80;71.40;;;;;;5094447;28;20040;-71
2021/05/24 05:50:16;;;;;;;1.95;0.10;;;13.80;71.40;;;;;;5108842;28;20043;-71
2021/05/24 05:52:42;;;;;;;0.55;0.08;;;13.90;71.40;;;;;;5111793;28;20525;-71
2021/05/24 05:55:10;;;;;;;0.60;0.08;;;13.90;71.30;;;;;;5097966;28;20089;-71
2021/05/24 05:57:37;;;;;;;0.20;0.10;;;14.00;71.30;;;;;;5104922;28;20043;-71
2021/05/24 06:00:05;;;;;;;0.20;0.10;;;14.00;71.30;;;;;;5087758;28;20052;-71
2021/05/24 06:02:37;;;;;;;0.65;0.10;;;14.00;71.20;;;;;;5111991;28;20044;-71
2021/05/24 06:05:10;;;;;;;1.02;0.00;;;14.10;71.30;;;;;;5099595;28;20086;-71
2021/05/24 06:07:37;;;;;;;0.98;0.10;;;14.20;71.30;;;;;;5090520;28;20055;-72
2021/05/24 06:10:06;;;;;;;1.95;0.10;;;14.20;71.20;;;;;;5092744;28;20118;-71
2021/05/24 06:12:33;;;;;;;0.80;0.10;;;14.30;71.10;;;;;;5109898;28;20433;-71
2021/05/24 06:15:00;;;;;;;0.20;0.03;;;14.30;71.10;;;;;;5107474;28;20036;-72
2021/05/24 06:17:27;;;;;;;0.77;0.10;;;14.40;71.10;;;;;;5112058;28;20050;-71
2021/05/24 06:19:54;;;;;;;1.05;0.20;;;14.40;71.00;;;;;;5093869;28;20039;-71
2021/05/24 06:22:21;;;;;;;1.55;0.10;;;14.50;70.90;;;;;;5094009;28;20063;-71
2021/05/24 06:24:48;;;;;;;0.20;0.10;;;14.50;70.90;;;;;;5076528;28;20054;-71
2021/05/24 06:27:15;;;;;;;0.93;0.20;;;14.60;70.90;;;;;;5079149;28;20071;-71
2021/05/24 06:29:42;;;;;;;0.25;0.00;;;14.70;70.80;;;;;;5092835;28;20048;-71
2021/05/24 06:32:09;;;;;;;0.20;0.10;;;14.70;70.70;;;;;;5089902;28;20723;-71
2021/05/24 06:34:36;;;;;;;0.40;0.10;;;14.70;70.70;;;;;;5091530;28;20064;-71
2021/05/24 06:37:04;;;;;;;0.10;0.10;;;14.80;70.70;;;;;;5091433;28;20093;-71
2021/05/24 06:39:31;;;;;;;0.22;0.00;;;14.80;70.70;;;;;;5088185;28;20079;-71
2021/05/24 06:41:58;;;;;;;0.90;0.10;;;14.80;70.60;;;;;;5089900;28;20536;-71
2021/05/24 06:44:25;;;;;;;0.40;0.10;;;14.90;70.60;;;;;;5088013;28;20498;-71
2021/05/24 06:46:52;;;;;;;0.28;0.20;;;14.80;71.10;;;;;;5089332;28;20487;-71
2021/05/24 06:49:19;;;;;;;0.68;0.10;;;14.90;70.50;;;;;;5075464;28;20039;-71
2021/05/24 06:51:47;;;;;;;1.63;0.10;;;14.90;70.40;;;;;;5072002;28;20451;-71
2021/05/24 06:54:14;;;;;;;0.80;0.10;;;14.80;70.20;;;;;;5091207;28;20036;-71
2021/05/24 06:56:41;;;;;;;1.23;0.20;;;14.80;70.20;;;;;;5089451;28;20032;-71
2021/05/24 06:59:08;;;;;;;0.85;0.20;;;14.70;70.00;;;;;;5079586;28;20044;-71
2021/05/24 07:01:36;;;;;;;1.52;0.25;;;14.70;70.10;;;;;;5091242;28;20048;-71
2021/05/24 07:04:03;;;;;;;1.20;0.17;;;14.70;70.20;;;;;;5088743;28;20491;-71
2021/05/24 07:06:30;;;;;;;0.80;0.10;;;14.70;70.20;;;;;;5088362;28;20035;-71
2021/05/24 07:09:02;;;;;;;0.60;0.20;;;14.80;70.30;;;;;;5091068;28;20126;-71
2021/05/24 07:11:30;;;;;;;3.10;0.30;;;14.80;70.20;;;;;;5089919;28;20047;-71
2021/05/24 07:13:57;;;;;;;0.52;0.05;;;14.70;70.20;;;;;;5083293;28;20415;-71
2021/05/24 07:16:24;;;;;;;0.60;0.10;;;14.60;70.40;;;;;;5087329;28;20043;-71
2021/05/24 07:18:51;;;;;;;0.60;0.10;;;14.50;70.60;;;;;;5087358;28;20028;-71
2021/05/24 07:21:18;;;;;;;1.08;0.20;;;14.40;70.90;;;;;;5087268;28;20032;-71
2021/05/24 07:23:45;;;;;;;0.50;0.13;;;14.30;71.20;;;;;;5085308;28;20039;-71
2021/05/24 07:26:12;;;;;;;0.40;0.10;;;14.20;71.50;;;;;;5087870;28;20483;-71
2021/05/24 07:28:39;;;;;;;0.40;0.10;;;14.10;71.80;;;;;;5091325;28;20119;-72
2021/05/24 07:31:06;;;;;;;0.70;0.10;;;14.00;71.90;;;;;;5060094;28;20051;-73
2021/05/24 07:33:33;;;;;;;0.45;0.10;;;13.90;72.00;;;;;;5068182;28;20522;-73
2021/05/24 07:36:00;;;;;;;0.20;0.10;;;13.90;72.10;;;;;;5073330;28;20094;-73
2021/05/24 07:38:27;;;;;;;0.32;0.10;;;13.80;72.10;;;;;;5069058;28;20064;-71
2021/05/24 07:40:54;;;;;;;0.30;0.10;;;13.80;72.30;;;;;;5067748;28;20041;-72
2021/05/24 07:43:21;;;;;;;0.20;0.10;;;13.80;72.50;;;;;;5073001;28;20028;-72
2021/05/24 07:45:48;;;;;;;0.57;0.35;;;13.70;72.60;;;;;;5088932;28;20086;-73
2021/05/24 07:48:15;;;;;;;0.30;0.10;;;13.80;72.70;;;;;;5059203;28;20130;-72
2021/05/24 07:50:42;;;;;;;0.20;0.03;;;13.70;72.70;;;;;;5052867;28;20072;-72
2021/05/24 07:53:09;;;;;;;0.05;0.00;;;13.80;72.80;;;;;;5070034;28;20137;-73
2021/05/24 07:55:36;;;;;;;0.15;0.10;;;13.70;72.90;;;;;;5061310;28;20102;-73
2021/05/24 07:58:03;;;;;;;0.28;0.15;;;13.80;73.10;;;;;;5070915;28;20029;-74
2021/05/24 08:00:31;;;;;;;0.15;0.10;;;13.70;73.10;;;;;;5055524;28;20045;-73
2021/05/24 08:02:58;;;;;;;0.40;0.15;;;13.70;73.30;;;;;;5068334;28;20056;-72
2021/05/24 08:05:27;;;;;;;1.55;0.28;;;13.70;73.50;;;;;;5059879;28;20041;-71
2021/05/24 08:07:55;;;;;;;0.32;0.10;;;13.70;73.50;;;;;;5068563;28;20139;-73
2021/05/24 08:10:22;;;;;;;0.43;0.17;;;13.70;73.60;;;;;;5072960;28;20131;-73
2021/05/24 08:12:49;;;;;;;0.32;0.13;;;13.80;73.60;;;;;;5070034;28;20056;-73
2021/05/24 08:15:23;;;;;;;0.10;0.10;;;13.80;73.70;;;;;;5072749;28;20036;-73
2021/05/24 08:17:50;;;;;;;0.65;0.10;;;13.80;73.90;;;;;;5068400;28;20033;-73
2021/05/24 08:20:17;;;;;;;0.85;0.35;;;13.80;74.00;;;;;;5065056;28;20063;-71
2021/05/24 08:22:44;;;;;;;0.28;0.08;;;13.90;74.00;;;;;;5071847;28;20032;-72
2021/05/24 08:25:12;;;;;;;1.70;0.10;;;13.90;74.00;;;;;;5072255;28;20059;-72
2021/05/24 08:27:39;;;;;;;0.13;0.10;;;14.00;74.20;;;;;;5064382;28;20121;-72
2021/05/24 08:30:26;;;;;;;0.30;0.10;;;13.90;74.40;;;;;;5064597;28;20451;-74
2021/05/24 08:32:53;;;;;;;0.88;0.30;;;13.80;74.50;;;;;;5083750;28;20048;-73
2021/05/24 08:35:21;;;;;;;0.28;0.10;;;13.80;74.70;;;;;;5092766;28;20044;-74
2021/05/24 08:37:49;;;;;;;0.20;0.10;;;13.80;74.90;;;;;;5092971;28;20044;-74
2021/05/24 08:40:18;;;;;;;0.68;0.10;;;13.90;75.00;;;;;;5076287;28;20073;-74
2021/05/24 08:42:49;;;;;;;0.45;0.10;;;14.00;75.00;;;;;;5081033;28;20079;-74
2021/05/24 08:45:16;;;;;;;0.50;0.13;;;14.00;75.00;;;;;;5092426;28;20067;-72
2021/05/24 08:47:43;;;;;;;0.30;0.10;;;14.10;75.00;;;;;;5082960;28;20055;-72
2021/05/24 08:50:14;;;;;;;0.17;0.10;;;14.10;75.00;;;;;;5081316;28;20044;-72
2021/05/24 08:52:42;;;;;;;0.20;0.10;;;14.10;75.20;;;;;;5091325;28;20135;-72
2021/05/24 08:55:11;;;;;;;2.50;0.15;;;14.20;75.20;;;;;;5083476;28;20033;-72
2021/05/24 08:57:40;;;;;;;0.52;0.20;;;14.20;75.20;;;;;;5089254;28;20105;-72
2021/05/24 09:00:19;;;;;;;0.30;0.25;;;14.20;75.40;;;;;;5068582;28;20044;-71
2021/05/24 09:02:49;;;;;;;0.70;0.30;;;14.20;76.20;;;;;;5086373;28;20376;-72
2021/05/24 09:05:16;;;;;;;0.38;0.20;;;14.10;75.60;;;;;;5092531;28;20433;-71
2021/05/24 09:08:01;;;;;;;5.35;1.55;;;14.00;75.90;;;;;;5084139;28;20483;-71
2021/05/24 09:10:29;;;;;;;7.45;1.88;;;14.00;77.30;;;;;;5079938;28;20040;-72
2021/05/24 09:12:57;;;;;;;4.82;1.55;;;13.90;77.90;;;;;;5089074;28;20051;-72
2021/05/24 09:15:26;;;;;;;3.72;0.80;;;13.80;78.50;;;;;;5093146;28;20060;-72
2021/05/24 09:18:00;;;;;;;3.90;1.20;;;13.70;78.90;;;;;;5091831;28;20036;-72
2021/05/24 09:20:31;;;;;;;3.25;0.75;;;13.60;79.50;;;;;;5089420;28;20526;-72
2021/05/24 09:23:05;;;;;;;2.63;0.83;;;13.50;80.00;;;;;;5093034;28;20040;-72
2021/05/24 09:25:48;;;;;;;2.20;0.60;;;13.40;80.40;;;;;;5091829;28;20047;-72
2021/05/24 09:28:25;;;;;;;2.60;0.50;;;13.40;80.80;;;;;;5091816;28;20043;-72
2021/05/24 09:30:54;;;;;;;0.98;0.50;;;13.30;81.10;;;;;;5091608;28;20097;-72
2021/05/24 09:33:21;;;;;;;1.33;0.30;;;13.20;81.20;;;;;;5110951;28;20057;-72
2021/05/24 09:35:51;;;;;;;0.98;0.40;;;13.20;81.40;;;;;;5093667;28;20055;-72
2021/05/24 09:38:25;;;;;;;0.40;0.20;;;13.30;81.50;;;;;;5072765;28;20105;-71
2021/05/24 09:40:59;;;;;;;0.32;0.20;;;13.40;81.50;;;;;;5102291;28;20479;-72
2021/05/24 09:43:56;;;;;;;2.13;0.25;;;13.40;81.40;;;;;;5113273;28;20044;-71
2021/05/24 09:46:28;;;;;;;1.05;0.30;;;13.50;81.50;;;;;;5084742;28;20046;-72
2021/05/24 09:49:02;;;;;;;1.73;0.20;;;13.60;81.50;;;;;;5110261;28;20050;-72
2021/05/24 09:51:33;;;;;;;0.45;0.20;;;13.60;81.30;;;;;;5059595;28;20036;-72
2021/05/24 09:54:05;;;;;;;0.73;0.20;;;13.70;81.60;;;;;;5109231;28;20122;-71
2021/05/24 09:56:34;;;;;;;;;;;13.70;81.60;;;;;;5094482;28;20046;-72
2021/05/24 09:59:13;;;;;;;0.80;0.22;;;13.70;82.20;;;;;;5094254;28;19919;-72
2021/05/24 10:01:49;;;;;;;0.70;0.20;;;13.70;81.90;;;;;;5112616;28;20042;-72
2021/05/24 10:04:20;;;;;;;0.80;0.25;;;13.60;82.00;;;;;;5112710;28;20036;-72
2021/05/24 10:06:48;;;;;;;0.82;0.20;;;13.60;82.20;;;;;;5112840;28;20035;-72
2021/05/24 10:09:17;;;;;;;0.88;0.20;;;13.50;82.40;;;;;;5089647;28;20498;-72
2021/05/24 10:11:51;;;;;;;2.00;0.30;;;13.50;82.60;;;;;;5074492;28;20089;-72
2021/05/24 10:14:23;;;;;;;0.45;0.25;;;13.60;82.70;;;;;;5094745;28;20040;-71
2021/05/24 10:16:57;;;;;;;0.15;0.10;;;13.60;82.90;;;;;;5093245;28;20035;-71
2021/05/24 10:19:25;;;;;;;1.17;0.38;;;13.60;82.90;;;;;;5103354;28;20143;-71
2021/05/24 10:21:52;;;;;;;0.63;0.20;;;13.50;82.90;;;;;;5107864;28;20036;-72
2021/05/24 10:24:24;;;;;;;1.02;0.30;;;13.50;83.20;;;;;;5085561;28;20042;-74
2021/05/24 10:27:00;;;;;;;0.55;0.20;;;13.50;83.40;;;;;;5077440;28;20120;-73
2021/05/24 10:29:31;;;;;;;2.17;0.28;;;13.60;83.50;;;;;;5083901;28;20101;-73
2021/05/24 10:32:00;;;;;;;0.50;0.30;;;13.70;83.50;;;;;;5059752;28;20139;-75
2021/05/24 10:34:41;;;;;;;1.00;0.25;;;13.80;83.30;;;;;;5064698;28;20040;-74
2021/05/24 10:37:14;;;;;;;1.30;0.50;;;14.00;83.20;;;;;;5099763;28;20039;-74
2021/05/24 10:39:55;;;;;;;0.73;0.40;;;14.10;82.60;;;;;;5085924;28;20093;-75
2021/05/24 10:42:39;;;;;;;0.68;0.22;;;14.20;82.40;;;;;;5102107;28;20077;-73
2021/05/24 10:45:16;;;;;;;0.82;0.30;;;14.40;82.60;;;;;;5081459;28;20044;-74
2021/05/24 10:47:51;;;;;;;3.15;0.30;;;14.60;82.50;;;;;;5103219;28;20455;-73
2021/05/24 10:50:19;;;;;;;0.70;0.30;;;14.80;82.30;;;;;;5099064;28;20122;-76
2021/05/24 10:53:04;;;;;;;0.98;0.35;;;15.00;82.20;;;;;;5103113;28;20070;-77
2021/05/24 10:55:39;;;;;;;;;;;15.20;81.80;;;;;;5087192;28;20130;-76
2021/05/24 10:58:09;;;;;;;0.38;0.20;;;15.10;81.80;;;;;;5099382;28;20343;-73
2021/05/24 11:01:03;;;;;;;0.68;0.30;;;15.00;82.10;;;;;;5107484;28;20057;-74
2021/05/24 11:03:32;;;;;;;0.80;0.30;;;15.10;82.10;;;;;;5102109;28;20040;-73
2021/05/24 11:06:12;;;;;;;0.50;0.25;;;15.10;82.20;;;;;;5112484;28;20063;-74
2021/05/24 11:08:42;;;;;;;1.08;0.30;;;15.00;82.30;;;;;;5084317;28;20044;-73
2021/05/24 11:11:24;;;;;;;0.95;0.38;;;14.90;82.60;;;;;;5093231;28;20122;-73
2021/05/24 11:13:58;;;;;;;0.68;0.30;;;14.80;82.70;;;;;;5086957;28;20085;-75
2021/05/24 11:16:27;;;;;;;0.50;0.30;;;14.60;82.90;;;;;;5091490;28;20051;-73
2021/05/24 11:19:11;;;;;;;0.60;0.30;;;14.50;83.20;;;;;;5074227;28;20055;-75
2021/05/24 11:21:47;;;;;;;0.45;0.30;;;14.40;83.80;;;;;;5107689;28;20039;-73
2021/05/24 11:27:16;;;;;;;0.55;0.30;;;14.40;83.70;;;;;;5110243;28;20035;-73
2021/05/24 11:29:50;;;;;;;1.02;0.30;;;14.50;84.60;;;;;;5104012;28;20042;-73
2021/05/24 11:32:27;;;;;;;0.77;0.30;;;14.50;83.80;;;;;;5093211;28;20048;-73
2021/05/24 11:34:56;;;;;;;0.40;0.10;;;14.70;83.80;;;;;;5091839;28;20040;-72
2021/05/24 11:37:43;;;;;;;0.70;0.20;;;14.70;83.60;;;;;;5093691;28;20043;-73
2021/05/24 11:40:15;;;;;;;1.27;0.20;;;14.80;83.70;;;;;;5071068;28;20067;-72
2021/05/24 11:42:43;;;;;;;0.40;0.10;;;14.80;84.10;;;;;;5077169;28;20108;-72
2021/05/24 11:45:22;;;;;;;0.90;0.20;;;14.80;83.70;;;;;;5106626;28;20039;-72
2021/05/24 11:48:00;;;;;;;2.72;0.40;;;14.90;83.70;;;;;;5107654;28;20071;-73
2021/05/24 11:50:28;;;;;;;0.43;0.13;;;15.00;83.40;;;;;;5092644;28;20494;-73
2021/05/24 11:52:55;;;;;;;0.73;0.10;;;15.00;83.30;;;;;;5103556;28;20043;-74
2021/05/24 11:55:24;;;;;;;0.20;0.10;;;15.20;83.50;;;;;;5076100;28;20036;-74
2021/05/24 11:57:59;;;;;;;0.50;0.10;;;15.40;83.40;;;;;;5062023;28;20118;-72
2021/05/24 12:00:27;;;;;;;1.52;0.28;;;15.50;83.10;;;;;;5091177;28;20387;-70
2021/05/24 12:03:01;;;;;;;0.95;0.20;;;15.60;82.90;;;;;;5095080;28;20127;-73
2021/05/24 12:05:29;;;;;;;0.70;0.10;;;15.80;82.40;;;;;;5113205;28;20092;-74
2021/05/24 12:07:56;;;;;;;0.30;0.10;;;15.90;82.40;;;;;;5106316;28;20040;-73
2021/05/24 12:10:26;;;;;;;0.70;0.20;;;16.00;82.30;;;;;;5095746;28;20406;-72
2021/05/24 12:12:54;;;;;;;0.30;0.10;;;16.10;82.10;;;;;;5094001;28;20039;-74
2021/05/24 12:15:21;;;;;;;0.80;0.20;;;16.00;81.80;;;;;;5092388;28;20071;-73
2021/05/24 12:17:52;;;;;;;0.47;0.20;;;15.90;81.60;;;;;;5078820;28;20120;-73
2021/05/24 12:20:22;;;;;;;0.73;0.22;;;15.80;82.10;;;;;;5090942;28;20040;-73
2021/05/24 12:22:52;;;;;;;0.52;0.00;;;15.70;82.30;;;;;;5075452;28;20089;-72
2021/05/24 12:25:20;;;;;;;0.38;0.10;;;15.70;82.50;;;;;;5091377;28;20384;-73
2021/05/24 12:27:51;;;;;;;0.30;0.13;;;15.70;82.10;;;;;;5102956;28;20043;-72
2021/05/24 12:30:36;;;;;;;0.63;0.20;;;15.70;82.50;;;;;;5068243;28;20054;-70
2021/05/24 12:33:09;;;;;;;1.83;0.15;;;15.70;82.70;;;;;;5107106;28;20296;-76
2021/05/24 12:35:38;;;;;;;0.15;0.10;;;15.70;82.70;;;;;;5096884;28;20380;-74
2021/05/24 12:41:42;;;;;;;1.00;0.10;;;15.90;82.30;;;;;;5090859;28;20040;-77
2021/05/24 12:44:12;;;;;;;0.30;0.10;;;16.00;81.70;;;;;;5108132;28;20097;-77
2021/05/24 12:46:41;;;;;;;0.32;0.20;;;15.90;81.40;;;;;;5089159;28;20036;-73
2021/05/24 12:49:08;;;;;;;0.10;0.10;;;16.00;81.70;;;;;;5101811;28;20036;-79
2021/05/24 12:51:43;;;;;;;0.82;0.15;;;16.10;81.90;;;;;;5051784;28;20048;-82
2021/05/24 12:54:11;;;;;;;0.30;0.10;;;16.30;81.70;;;;;;5106858;28;20036;-77
2021/05/24 12:56:41;;;;;;;0.30;0.10;;;16.40;81.70;;;;;;5053320;28;20130;-76
2021/05/24 12:59:14;;;;;;;1.70;0.20;;;16.50;81.10;;;;;;5106167;28;20488;-77
2021/05/24 13:01:41;;;;;;;0.55;0.20;;;16.40;80.10;;;;;;5089001;28;20032;-72
2021/05/24 13:04:09;;;;;;;0.38;0.20;;;16.30;81.30;;;;;;5108819;28;20050;-73